createdAt,value
2019-02-22T00:05:15.786Z,28.57
2019-02-22T00:07:44.643Z,20.67
2019-02-22T00:10:15.257Z,24.60
2019-02-22T00:12:44.083Z,22.10
2019-02-22T00:15:12.978Z,22.27
2019-02-22T00:17:43.166Z,20.27
2019-02-22T00:20:11.948Z,23.70
2019-02-22T00:22:40.750Z,19.03
2019-02-22T00:25:09.501Z,21.40
2019-02-22T00:27:38.264Z,24.00
2019-02-22T00:30:08.092Z,21.03
2019-02-22T00:32:38.075Z,16.77
2019-02-22T00:35:07.640Z,19.53
2019-02-22T00:37:36.491Z,24.73
2019-02-22T00:40:05.981Z,27.10
2019-02-22T00:42:34.881Z,19.67
2019-02-22T00:45:04.752Z,18.77
2019-02-22T00:47:33.682Z,22.50
2019-02-22T00:50:02.521Z,19.87
2019-02-22T00:52:33.464Z,24.43
2019-02-22T00:55:04.737Z,31.83
2019-02-22T00:57:35.286Z,28.13
2019-02-22T01:00:05.358Z,26.40
2019-02-22T01:02:35.057Z,21.47
2019-02-22T01:05:37.194Z,19.60
2019-02-22T01:20:34.765Z,21.13
2019-02-22T01:26:49.074Z,17.03
2019-02-22T01:41:22.456Z,18.77
2019-02-22T01:43:51.745Z,24.43
2019-02-22T01:46:20.517Z,23.03
2019-02-22T01:48:49.341Z,21.10
2019-02-22T01:51:18.000Z,25.37
2019-02-22T01:53:46.951Z,28.13
2019-02-22T01:56:15.640Z,24.70
2019-02-22T01:58:48.641Z,28.00
2019-02-22T02:01:15.025Z,28.67
2019-02-22T02:03:43.705Z,28.95
2019-02-22T02:06:12.470Z,33.70
2019-02-22T02:08:41.135Z,30.23
2019-02-22T02:11:09.946Z,28.93
2019-02-22T02:13:38.536Z,29.20
2019-02-22T02:16:07.278Z,34.30
2019-02-22T02:18:36.084Z,25.57
2019-02-22T02:21:04.815Z,32.17
2019-02-22T02:26:33.126Z,29.67
2019-02-22T02:29:01.913Z,29.13
2019-02-22T02:31:30.819Z,31.10
2019-02-22T02:33:59.665Z,28.73
2019-02-22T02:36:28.597Z,36.37
2019-02-22T02:38:57.419Z,29.48
2019-02-22T02:41:26.227Z,25.13
2019-02-22T02:43:54.962Z,34.90
2019-02-22T02:46:23.625Z,27.17
2019-02-22T02:48:52.540Z,23.17
2019-02-22T02:51:21.221Z,26.17
2019-02-22T02:53:50.164Z,25.77
2019-02-22T02:56:18.941Z,26.67
2019-02-22T02:58:47.853Z,28.13
2019-02-22T03:01:16.710Z,27.17
2019-02-22T03:03:45.354Z,28.73
2019-02-22T03:06:19.069Z,29.10
2019-02-22T03:08:47.965Z,22.40
2019-02-22T03:11:20.657Z,25.70
2019-02-22T03:13:47.230Z,27.93
2019-02-22T03:16:16.752Z,33.10
2019-02-22T03:18:45.405Z,29.93
2019-02-22T03:21:14.287Z,26.20
2019-02-22T03:23:43.090Z,29.40
2019-02-22T03:26:11.918Z,26.73
2019-02-22T03:28:40.704Z,25.30
2019-02-22T03:31:09.496Z,24.60
2019-02-22T03:33:38.306Z,29.07
2019-02-22T03:36:07.076Z,26.40
2019-02-22T03:38:35.987Z,27.30
2019-02-22T03:41:05.216Z,23.20
2019-02-22T03:43:34.019Z,29.80
2019-02-22T03:46:02.954Z,25.93
2019-02-22T03:48:31.838Z,29.13
2019-02-22T03:51:00.591Z,25.57
2019-02-22T03:53:31.008Z,23.03
2019-02-22T03:56:00.218Z,21.80
2019-02-22T03:58:28.943Z,32.30
2019-02-22T04:00:57.983Z,27.33
2019-02-22T04:03:29.687Z,25.60
2019-02-22T04:05:58.628Z,24.57
2019-02-22T04:08:27.283Z,29.20
2019-02-22T04:10:56.033Z,24.73
2019-02-22T04:13:52.369Z,25.23
2019-02-22T04:16:21.329Z,24.90
2019-02-22T04:18:50.186Z,27.23
2019-02-22T04:21:19.073Z,27.40
2019-02-22T04:23:47.845Z,24.90
2019-02-22T04:26:16.644Z,28.97
2019-02-22T04:28:45.346Z,26.67
2019-02-22T04:34:19.834Z,28.23
2019-02-22T04:36:48.897Z,23.97
2019-02-22T04:39:17.641Z,32.80
2019-02-22T04:41:57.763Z,32.70
2019-02-22T04:44:16.990Z,28.20
2019-02-22T04:46:45.851Z,26.60
2019-02-22T04:49:14.587Z,27.33
2019-02-22T04:51:43.357Z,28.00
2019-02-22T04:54:12.279Z,25.80
2019-02-22T04:56:41.046Z,23.87
2019-02-22T04:59:09.829Z,36.97
2019-02-22T05:01:38.673Z,28.30
2019-02-22T05:04:07.301Z,27.50
2019-02-22T05:06:36.179Z,29.33
2019-02-22T05:09:05.430Z,28.73
2019-02-22T05:11:34.163Z,32.17
2019-02-22T05:19:25.525Z,34.50
2019-02-22T05:22:05.678Z,31.40
2019-02-22T05:24:35.073Z,31.83
2019-02-22T05:27:03.802Z,28.30
2019-02-22T05:29:33.542Z,35.50
2019-02-22T05:35:02.188Z,34.37
2019-02-22T05:37:31.515Z,37.35
2019-02-22T05:40:00.557Z,35.10
2019-02-22T05:42:29.233Z,35.40
2019-02-22T05:44:58.012Z,30.63
2019-02-22T05:47:26.853Z,27.13
2019-02-22T05:49:55.536Z,35.33
2019-02-22T05:52:24.375Z,33.00
2019-02-22T05:54:53.249Z,35.37
2019-02-22T05:59:58.570Z,32.23
2019-02-22T06:02:37.761Z,35.97
2019-02-22T06:11:15.330Z,41.40
2019-02-22T06:13:46.174Z,44.37
2019-02-22T06:16:18.246Z,40.80
2019-02-22T06:21:50.993Z,35.63
2019-02-22T06:24:20.042Z,43.23
2019-02-22T06:26:49.002Z,40.87
2019-02-22T06:29:17.754Z,41.58
2019-02-22T06:31:46.685Z,37.10
2019-02-22T06:34:15.822Z,48.05
2019-02-22T06:36:44.760Z,39.95
2019-02-22T06:39:17.499Z,43.53
2019-02-22T06:41:46.517Z,40.73
2019-02-22T06:44:15.322Z,39.83
2019-02-22T07:05:55.599Z,34.57
2019-02-22T07:45:51.566Z,42.07
2019-02-22T07:48:32.013Z,44.10
2019-02-22T07:51:00.849Z,42.80
2019-02-22T07:53:32.398Z,39.50
2019-02-22T07:56:01.102Z,48.97
2019-02-22T07:58:30.920Z,40.80
2019-02-22T08:00:59.813Z,37.48
2019-02-22T08:03:28.744Z,44.77
2019-02-22T08:05:57.569Z,57.90
2019-02-22T08:08:26.419Z,61.53
2019-02-22T08:10:55.207Z,38.90
2019-02-22T08:13:23.948Z,41.92
2019-02-22T08:15:52.852Z,43.23
2019-02-22T08:18:21.707Z,46.73
2019-02-22T08:20:51.500Z,48.50
2019-02-22T08:23:20.321Z,44.33
2019-02-22T08:25:49.302Z,44.05
2019-02-22T08:28:19.498Z,45.92
2019-02-22T08:30:49.537Z,42.43
2019-02-22T08:33:18.290Z,37.83
2019-02-22T08:35:47.166Z,38.63
2019-02-22T08:38:16.076Z,38.15
2019-02-22T08:40:44.925Z,42.73
2019-02-22T08:43:13.668Z,48.65
2019-02-22T08:45:42.416Z,45.40
2019-02-22T08:48:11.256Z,37.30
2019-02-22T08:50:40.073Z,48.58
2019-02-22T08:53:08.825Z,47.73
2019-02-22T08:55:37.689Z,44.15
2019-02-22T08:58:06.509Z,40.30
2019-02-22T09:00:35.231Z,51.80
2019-02-22T09:03:03.950Z,45.20
2019-02-22T09:05:32.800Z,42.87
2019-02-22T09:08:01.587Z,40.28
2019-02-22T09:10:30.472Z,43.77
2019-02-22T09:12:59.245Z,36.83
2019-02-22T09:15:28.113Z,40.20
2019-02-22T09:17:56.942Z,37.63
2019-02-22T09:20:25.846Z,39.43
2019-02-22T09:22:57.370Z,55.87
2019-02-22T09:25:26.249Z,46.83
2019-02-22T09:27:54.893Z,46.20
2019-02-22T09:30:23.873Z,41.43
2019-02-22T09:32:52.639Z,40.40
2019-02-22T09:35:21.511Z,39.00
2019-02-22T09:37:50.348Z,38.10
2019-02-22T09:40:19.788Z,40.27
2019-02-22T09:42:48.691Z,39.23
2019-02-22T09:45:17.450Z,40.23
2019-02-22T09:47:48.102Z,34.10
2019-02-22T09:50:17.181Z,43.20
2019-02-22T09:52:46.225Z,46.47
2019-02-22T09:55:15.089Z,42.70
2019-02-22T09:57:44.307Z,36.27
2019-02-22T10:00:14.463Z,41.00
2019-02-22T10:02:44.861Z,38.33
2019-02-22T10:05:14.023Z,41.30
2019-02-22T10:07:42.843Z,34.57
2019-02-22T10:10:12.183Z,39.07
2019-02-22T10:12:40.913Z,43.40
2019-02-22T10:15:10.653Z,40.20
2019-02-22T10:17:39.400Z,45.60
2019-02-22T10:20:11.343Z,42.53
2019-02-22T10:22:40.197Z,42.67
2019-02-22T10:25:09.148Z,46.67
2019-02-22T10:27:37.845Z,40.87
2019-02-22T10:30:11.989Z,46.87
2019-02-22T10:32:40.758Z,42.83
2019-02-22T10:35:09.523Z,37.80
2019-02-22T10:37:38.349Z,42.30
2019-02-22T10:40:09.020Z,35.70
2019-02-22T10:42:47.492Z,35.93
2019-02-22T10:45:16.315Z,33.40
2019-02-22T10:47:45.142Z,39.57
2019-02-22T10:50:13.877Z,32.23
2019-02-22T10:55:38.424Z,33.00
2019-02-22T10:58:07.451Z,38.30
2019-02-22T11:00:36.315Z,35.73
2019-02-22T11:03:04.959Z,31.57
2019-02-22T11:05:33.829Z,25.53
2019-02-22T11:08:02.625Z,28.60
2019-02-22T11:10:40.833Z,29.63
2019-02-22T11:25:43.639Z,28.10
2019-02-22T11:28:12.509Z,29.47
2019-02-22T11:30:41.436Z,27.30
2019-02-22T11:33:10.068Z,23.97
2019-02-22T11:54:20.976Z,26.57
2019-02-22T11:56:49.487Z,27.47
2019-02-22T11:59:18.072Z,25.17
2019-02-22T12:01:47.133Z,26.27
2019-02-22T12:04:15.663Z,20.30
2019-02-22T12:06:44.159Z,19.43
2019-02-22T12:09:12.845Z,22.23
2019-02-22T12:11:41.471Z,18.87
2019-02-22T12:14:10.103Z,23.00
2019-02-22T12:16:38.645Z,18.63
2019-02-22T12:19:07.375Z,20.90
2019-02-22T12:21:35.865Z,18.50
2019-02-22T12:24:04.411Z,18.23
2019-02-22T12:26:32.926Z,17.90
2019-02-22T12:29:01.397Z,16.20
2019-02-22T12:31:29.946Z,17.97
2019-02-22T12:33:58.485Z,18.37
2019-02-22T12:36:28.411Z,19.07
2019-02-22T12:39:02.513Z,17.47
2019-02-22T12:54:08.027Z,14.93
2019-02-22T12:56:57.540Z,13.77
2019-02-22T12:59:38.438Z,15.60
2019-02-22T13:02:10.374Z,13.77
2019-02-22T13:04:56.662Z,16.53
2019-02-22T13:07:34.522Z,13.70
2019-02-22T13:14:45.513Z,17.73
2019-02-22T13:21:08.544Z,15.63
2019-02-22T13:31:29.405Z,12.70
2019-02-22T13:33:49.226Z,13.63
2019-02-22T13:36:17.810Z,12.47
2019-02-22T13:38:46.340Z,13.63
2019-02-22T13:41:16.636Z,15.63
2019-02-22T13:43:45.158Z,15.13
2019-02-22T13:46:13.711Z,12.00
2019-02-22T13:48:42.339Z,12.47
2019-02-22T13:51:10.819Z,13.60
2019-02-22T13:53:39.371Z,12.13
2019-02-22T13:56:07.935Z,14.17
2019-02-22T13:58:36.450Z,14.57
2019-02-22T14:01:05.028Z,15.73
2019-02-22T14:03:33.917Z,15.60
2019-02-22T14:06:02.935Z,20.77
2019-02-22T14:08:31.643Z,12.70
2019-02-22T14:11:00.132Z,14.17
2019-02-22T14:13:28.636Z,14.33
2019-02-22T14:15:57.097Z,13.60
2019-02-22T14:18:25.662Z,13.67
2019-02-22T14:20:54.117Z,13.17
2019-02-22T14:23:22.627Z,13.80
2019-02-22T14:25:51.096Z,19.93
2019-02-22T14:28:22.168Z,13.90
2019-02-22T14:30:52.570Z,13.73
2019-02-22T14:33:21.563Z,15.30
2019-02-22T14:36:03.551Z,11.40
2019-02-22T14:38:39.273Z,14.70
2019-02-22T14:45:12.984Z,12.50
2019-02-22T15:03:37.348Z,10.10
2019-02-22T15:08:55.768Z,11.00
2019-02-22T15:18:07.501Z,13.37
2019-02-22T15:23:45.603Z,9.77
2019-02-22T15:36:16.588Z,14.47
2019-02-22T15:38:50.603Z,12.10
2019-02-22T15:41:25.619Z,11.30
2019-02-22T15:44:13.425Z,15.03
2019-02-22T15:58:53.930Z,12.90
2019-02-22T16:01:23.634Z,17.80
2019-02-22T16:12:07.180Z,17.07
2019-02-22T16:14:38.527Z,19.27
2019-02-22T16:31:24.013Z,17.37
2019-02-22T16:33:53.140Z,17.57
2019-02-22T16:36:21.736Z,20.20
2019-02-22T16:49:49.882Z,15.93
2019-02-22T16:52:26.367Z,14.00
2019-02-22T16:58:25.590Z,25.60
2019-02-22T17:07:38.767Z,17.37
2019-02-22T17:10:09.680Z,14.50
2019-02-22T17:12:38.502Z,19.17
2019-02-22T17:15:11.793Z,18.50
2019-02-22T17:17:40.546Z,17.13
2019-02-22T17:20:11.970Z,16.73
2019-02-22T17:22:40.819Z,19.20
2019-02-22T17:25:12.866Z,17.90
2019-02-22T17:27:41.511Z,18.60
2019-02-22T17:30:12.738Z,19.70
2019-02-22T17:32:41.325Z,26.07
2019-02-22T17:35:10.244Z,18.60
2019-02-22T17:37:52.984Z,16.97
2019-02-22T17:40:26.729Z,19.82
2019-02-22T17:42:55.272Z,19.03
2019-02-22T17:45:23.835Z,22.70
2019-02-22T17:47:52.421Z,18.73
2019-02-22T17:50:20.990Z,22.23
2019-02-22T17:52:49.612Z,19.80
2019-02-22T17:55:18.165Z,23.80
2019-02-22T17:57:46.689Z,24.93
2019-02-22T18:00:18.003Z,17.50
2019-02-22T18:02:46.590Z,19.43
2019-02-22T18:05:15.183Z,24.90
2019-02-22T18:07:43.719Z,19.70
2019-02-22T18:10:12.473Z,21.97
2019-02-22T18:12:41.072Z,19.00
2019-02-22T18:15:11.312Z,20.60
2019-02-22T18:17:40.933Z,22.70
2019-02-22T18:20:09.497Z,22.60
2019-02-22T18:22:38.076Z,22.33
2019-02-22T18:25:08.475Z,22.13
2019-02-22T18:27:37.095Z,20.87
2019-02-22T18:30:11.473Z,16.90
2019-02-22T18:32:40.109Z,21.27
2019-02-22T18:35:08.978Z,23.30
2019-02-22T18:37:37.544Z,23.07
2019-02-22T18:40:09.292Z,26.53
2019-02-22T18:42:37.821Z,25.77
2019-02-22T18:45:07.859Z,22.23
2019-02-22T18:47:36.416Z,23.13
2019-02-22T18:50:07.534Z,25.90
2019-02-22T18:52:36.126Z,29.67
2019-02-22T18:55:06.562Z,32.00
2019-02-22T18:57:35.153Z,29.07
2019-02-22T19:00:07.547Z,33.80
2019-02-22T19:02:35.529Z,26.87
2019-02-22T19:05:04.782Z,28.97
2019-02-22T19:07:33.346Z,28.33
2019-02-22T19:10:01.880Z,35.08
2019-02-22T19:12:30.577Z,25.17
2019-02-22T19:14:59.185Z,32.17
2019-02-22T19:17:30.340Z,29.40
2019-02-22T19:19:58.081Z,34.90
2019-02-22T19:22:26.745Z,38.07
2019-02-22T19:24:55.385Z,38.35
2019-02-22T19:27:23.991Z,32.50
2019-02-22T19:29:52.521Z,33.05
2019-02-22T19:32:21.038Z,39.80
2019-02-22T19:34:49.517Z,32.88
2019-02-22T19:37:17.998Z,34.30
2019-02-22T19:39:46.516Z,41.68
2019-02-22T19:42:15.157Z,43.20
2019-02-22T19:44:44.062Z,38.48
2019-02-22T19:47:12.588Z,51.13
2019-02-22T19:49:41.125Z,46.45
2019-02-22T19:52:09.688Z,36.53
2019-02-22T19:54:38.359Z,36.87
2019-02-22T19:57:06.912Z,37.37
2019-02-22T19:59:35.489Z,37.20
2019-02-22T20:02:04.033Z,34.15
2019-02-22T20:04:32.602Z,36.50
2019-02-22T20:07:01.095Z,35.68
2019-02-22T20:09:29.703Z,40.12
2019-02-22T20:11:58.315Z,43.63
2019-02-22T20:14:26.908Z,44.70
2019-02-22T20:16:55.457Z,44.27
2019-02-22T20:19:24.002Z,34.53
2019-02-22T20:21:52.591Z,36.60
2019-02-22T20:24:21.107Z,32.65
2019-02-22T20:26:49.669Z,30.03
2019-02-22T20:29:18.181Z,32.48
2019-02-22T20:31:46.716Z,32.40
2019-02-22T20:34:15.217Z,29.23
2019-02-22T20:36:44.232Z,29.27
2019-02-22T20:39:12.995Z,33.30
2019-02-22T20:41:41.528Z,28.20
2019-02-22T20:44:10.002Z,29.40
2019-02-22T20:46:38.512Z,25.50
2019-02-22T20:49:06.991Z,24.98
2019-02-22T20:51:35.549Z,25.90
2019-02-22T20:54:04.018Z,27.50
2019-02-22T20:56:32.588Z,23.65
2019-02-22T20:59:01.143Z,24.47
2019-02-22T21:01:29.644Z,26.77
2019-02-22T21:03:58.302Z,26.50
2019-02-22T21:06:26.957Z,24.13
2019-02-22T21:08:55.577Z,26.70
2019-02-22T21:11:24.137Z,25.77
2019-02-22T21:13:52.717Z,31.43
2019-02-22T21:16:21.218Z,30.20
2019-02-22T21:18:49.772Z,25.35
2019-02-22T21:21:18.304Z,32.70
2019-02-22T21:23:46.888Z,27.60
2019-02-22T21:26:15.374Z,27.10
2019-02-22T21:28:43.949Z,26.50
2019-02-22T21:31:12.428Z,22.10
2019-02-22T21:33:40.961Z,24.98
2019-02-22T21:36:10.547Z,24.20
2019-02-22T21:38:39.141Z,24.77
2019-02-22T21:41:07.626Z,24.97
2019-02-22T21:43:36.137Z,25.53
2019-02-22T21:46:04.655Z,31.20
2019-02-22T21:48:33.188Z,23.60
2019-02-22T21:51:01.698Z,24.50
2019-02-22T21:53:30.276Z,26.83
2019-02-22T21:55:58.815Z,27.55
2019-02-22T21:58:27.427Z,22.53
2019-02-22T22:00:56.097Z,20.30
2019-02-22T22:03:24.694Z,21.85
2019-02-22T22:05:53.293Z,17.53
2019-02-22T22:08:21.848Z,19.67
2019-02-22T22:10:50.463Z,20.40
2019-02-22T22:13:19.123Z,18.87
2019-02-22T22:15:47.725Z,19.90
2019-02-22T22:18:16.424Z,18.90
2019-02-22T22:20:44.945Z,17.12
2019-02-22T22:23:13.523Z,18.67
2019-02-22T22:25:42.140Z,17.00
2019-02-22T22:28:10.607Z,16.47
2019-02-22T22:30:39.077Z,21.00
2019-02-22T22:33:07.727Z,19.20
2019-02-22T22:35:36.372Z,18.12
2019-02-22T22:38:04.921Z,16.62
2019-02-22T22:40:33.456Z,18.48
2019-02-22T22:43:02.076Z,20.82
2019-02-22T22:45:30.703Z,17.40
2019-02-22T22:47:59.278Z,20.83
2019-02-22T22:50:27.760Z,15.35
2019-02-22T22:52:56.306Z,17.03
2019-02-22T22:55:24.793Z,19.15
2019-02-22T22:57:53.401Z,17.67
2019-02-22T23:00:29.611Z,20.82
2019-02-22T23:02:58.341Z,21.27
2019-02-22T23:05:26.867Z,21.90
2019-02-22T23:07:55.427Z,19.53
2019-02-22T23:10:23.948Z,24.18
2019-02-22T23:12:52.564Z,23.07
2019-02-22T23:15:21.096Z,20.80
2019-02-22T23:17:49.712Z,20.52
2019-02-22T23:20:18.348Z,21.40
2019-02-22T23:22:46.920Z,21.55
2019-02-22T23:25:15.424Z,20.63
2019-02-22T23:27:44.035Z,24.18
2019-02-22T23:30:12.653Z,21.35
2019-02-22T23:32:41.312Z,19.48
2019-02-22T23:35:09.895Z,21.25
2019-02-22T23:37:38.385Z,21.82
2019-02-22T23:40:07.137Z,22.15
2019-02-22T23:42:35.656Z,21.60
2019-02-22T23:45:04.573Z,21.07
2019-02-22T23:47:33.143Z,21.07
2019-02-22T23:50:01.635Z,22.90
2019-02-22T23:52:30.114Z,22.40
2019-02-22T23:54:58.621Z,26.85
2019-02-22T23:57:27.094Z,24.18
2019-02-22T23:59:55.600Z,21.17
